createdAt,value
2023-04-02T00:00:30.139Z,34.57
2023-04-02T00:01:30.150Z,34.57
2023-04-02T00:02:30.302Z,34.58
2023-04-02T00:03:30.291Z,34.58
2023-04-02T00:04:30.296Z,34.56
2023-04-02T00:05:30.334Z,34.58
2023-04-02T00:06:30.385Z,34.58
2023-04-02T00:07:30.410Z,34.53
2023-04-02T00:08:30.381Z,34.55
2023-04-02T00:09:30.359Z,34.58
2023-04-02T00:10:30.402Z,34.58
2023-04-02T00:11:30.423Z,34.58
2023-04-02T00:12:30.478Z,34.58
2023-04-02T00:13:30.473Z,34.57
2023-04-02T00:14:30.492Z,34.54
2023-04-02T00:15:30.505Z,34.55
2023-04-02T00:16:30.629Z,34.54
2023-04-02T00:17:30.575Z,34.54
2023-04-02T00:18:30.600Z,34.57
2023-04-02T00:19:30.619Z,34.56
2023-04-02T00:20:30.619Z,34.50
2023-04-02T00:21:30.650Z,34.55
2023-04-02T00:22:30.692Z,34.56
2023-04-02T00:23:30.697Z,34.53
2023-04-02T00:24:30.695Z,34.53
2023-04-02T00:25:30.757Z,34.51
2023-04-02T00:26:30.747Z,34.51
2023-04-02T00:27:30.773Z,34.53
2023-04-02T00:28:30.824Z,34.53
2023-04-02T00:30:01.919Z,34.54
2023-04-02T00:31:01.859Z,34.49
2023-04-02T00:32:01.895Z,34.48
2023-04-02T00:33:01.850Z,34.56
2023-04-02T00:34:01.830Z,34.53
2023-04-02T00:35:01.835Z,34.48
2023-04-02T00:36:01.857Z,34.51
2023-04-02T00:37:01.925Z,34.45
2023-04-02T00:38:01.821Z,34.51
2023-04-02T00:39:01.806Z,34.51
2023-04-02T00:40:01.781Z,34.47
2023-04-02T00:41:01.808Z,34.50
2023-04-02T00:42:01.803Z,34.51
2023-04-02T00:43:01.787Z,34.47
2023-04-02T00:44:01.778Z,34.47
2023-04-02T00:45:01.778Z,34.47
2023-04-02T00:46:01.847Z,34.43
2023-04-02T00:47:01.749Z,34.48
2023-04-02T00:48:01.769Z,34.48
2023-04-02T00:49:01.729Z,34.46
2023-04-02T00:50:01.740Z,34.42
2023-04-02T00:51:01.720Z,34.46
2023-04-02T00:52:01.725Z,34.47
2023-04-02T00:53:01.684Z,34.46
2023-04-02T00:54:01.725Z,34.41
2023-04-02T00:55:01.706Z,34.39
2023-04-02T00:56:01.673Z,34.43
2023-04-02T00:57:01.725Z,34.44
2023-04-02T00:58:01.653Z,34.46
2023-04-02T00:59:01.651Z,34.42
2023-04-02T01:00:01.675Z,34.43
2023-04-02T01:01:01.686Z,34.43
2023-04-02T01:02:01.691Z,34.41
2023-04-02T01:03:01.721Z,34.42
2023-04-02T01:04:01.619Z,34.42
2023-04-02T01:05:01.608Z,34.43
2023-04-02T01:06:01.661Z,34.38
2023-04-02T01:07:01.589Z,34.43
2023-04-02T01:08:01.643Z,34.35
2023-04-02T01:09:01.635Z,34.41
2023-04-02T01:10:01.610Z,34.36
2023-04-02T01:11:01.589Z,34.35
2023-04-02T01:12:01.567Z,34.38
2023-04-02T01:13:01.582Z,34.41
2023-04-02T01:14:01.558Z,34.39
2023-04-02T01:15:01.556Z,34.43
2023-04-02T01:16:01.582Z,34.41
2023-04-02T01:17:01.554Z,34.38
2023-04-02T01:18:01.669Z,34.41
2023-04-02T01:19:01.532Z,34.39
2023-04-02T01:20:01.513Z,34.38
2023-04-02T01:21:01.505Z,34.36
2023-04-02T01:22:01.497Z,34.41
2023-04-02T01:23:01.490Z,34.33
2023-04-02T01:24:01.474Z,34.37
2023-04-02T01:25:01.462Z,34.38
2023-04-02T01:26:01.499Z,34.37
2023-04-02T01:27:01.486Z,34.39
2023-04-02T01:28:01.459Z,34.39
2023-04-02T01:29:01.441Z,34.32
2023-04-02T01:30:01.491Z,34.34
2023-04-02T01:31:01.483Z,34.33
2023-04-02T01:32:01.441Z,34.36
2023-04-02T01:33:01.514Z,34.37
2023-04-02T01:34:01.440Z,34.34
2023-04-02T01:35:01.411Z,34.33
2023-04-02T01:36:01.498Z,34.32
2023-04-02T01:37:01.450Z,34.38
2023-04-02T01:38:01.421Z,34.34
2023-04-02T01:39:01.393Z,34.34
2023-04-02T01:40:01.414Z,34.33
2023-04-02T01:41:01.369Z,34.32
2023-04-02T01:42:01.367Z,34.37
2023-04-02T01:43:01.376Z,34.36
2023-04-02T01:44:01.362Z,34.33
2023-04-02T01:45:01.374Z,34.34
2023-04-02T01:46:01.332Z,34.34
2023-04-02T01:47:01.335Z,34.33
2023-04-02T01:48:01.344Z,34.30
2023-04-02T01:49:01.330Z,34.34
2023-04-02T01:50:01.335Z,34.34
2023-04-02T01:51:01.317Z,34.34
2023-04-02T01:52:01.323Z,34.34
2023-04-02T01:53:01.320Z,34.33
2023-04-02T01:54:01.290Z,34.33
2023-04-02T01:55:01.278Z,34.34
2023-04-02T01:56:01.268Z,34.29
2023-04-02T01:57:01.363Z,34.33
2023-04-02T01:58:01.284Z,34.30
2023-04-02T01:59:01.263Z,34.29
2023-04-02T02:00:01.252Z,34.28
2023-04-02T02:01:01.254Z,34.30
2023-04-02T02:02:01.332Z,34.28
2023-04-02T02:03:01.261Z,34.29
2023-04-02T02:04:01.242Z,34.29
2023-04-02T02:05:01.185Z,34.28
2023-04-02T02:06:01.235Z,34.32
2023-04-02T02:07:01.203Z,34.28
2023-04-02T02:08:01.235Z,34.25
2023-04-02T02:09:01.216Z,34.28
2023-04-02T02:10:01.253Z,34.25
2023-04-02T02:11:01.244Z,34.32
2023-04-02T02:12:01.268Z,34.28
2023-04-02T02:13:01.262Z,34.27
2023-04-02T02:14:01.289Z,34.24
2023-04-02T02:15:01.309Z,34.24
2023-04-02T02:16:01.350Z,34.27
2023-04-02T02:17:01.319Z,34.21
2023-04-02T02:18:01.392Z,34.25
2023-04-02T02:19:01.358Z,34.21
2023-04-02T02:20:01.378Z,34.26
2023-04-02T02:21:01.416Z,34.22
2023-04-02T02:22:01.375Z,34.21
2023-04-02T02:23:01.418Z,34.24
2023-04-02T02:24:01.424Z,34.20
2023-04-02T02:25:01.458Z,34.23
2023-04-02T02:26:01.469Z,34.25
2023-04-02T02:27:01.519Z,34.21
2023-04-02T02:28:01.522Z,34.25
2023-04-02T02:29:01.526Z,34.25
2023-04-02T02:30:01.533Z,34.24
2023-04-02T02:31:01.600Z,34.20
2023-04-02T02:32:50.727Z,34.29
2023-04-02T02:33:50.637Z,34.19
2023-04-02T02:34:50.595Z,34.21
2023-04-02T02:35:50.651Z,34.21
2023-04-02T02:36:50.639Z,34.23
2023-04-02T02:37:50.621Z,34.22
2023-04-02T02:38:50.601Z,34.19
2023-04-02T02:39:50.608Z,34.17
2023-04-02T02:40:50.573Z,34.23
2023-04-02T02:41:50.609Z,34.20
2023-04-02T02:42:50.573Z,34.20
2023-04-02T02:43:50.566Z,34.20
2023-04-02T02:44:50.539Z,34.21
2023-04-02T02:45:50.570Z,34.18
2023-04-02T02:46:50.558Z,34.19
2023-04-02T02:47:50.534Z,34.16
2023-04-02T02:48:50.522Z,34.19
2023-04-02T02:49:50.516Z,34.16
2023-04-02T02:50:50.538Z,34.17
2023-04-02T02:51:50.522Z,34.19
2023-04-02T02:52:50.498Z,34.17
2023-04-02T02:53:50.478Z,34.19
2023-04-02T02:54:50.478Z,34.20
2023-04-02T02:55:50.462Z,34.19
2023-04-02T02:56:50.470Z,34.20
2023-04-02T02:57:50.486Z,34.14
2023-04-02T02:58:50.430Z,34.18
2023-04-02T02:59:50.444Z,34.20
2023-04-02T03:00:50.441Z,34.16
2023-04-02T03:01:50.458Z,34.16
2023-04-02T03:02:50.564Z,34.20
2023-04-02T03:03:50.578Z,34.21
2023-04-02T03:04:50.398Z,34.17
2023-04-02T03:05:50.418Z,34.17
2023-04-02T03:06:50.422Z,34.16
2023-04-02T03:07:50.404Z,34.20
2023-04-02T03:08:50.366Z,34.20
2023-04-02T03:09:50.356Z,34.15
2023-04-02T03:10:50.377Z,34.19
2023-04-02T03:11:50.366Z,34.21
2023-04-02T03:12:50.325Z,34.18
2023-04-02T03:13:50.337Z,34.16
2023-04-02T03:14:50.337Z,34.19
2023-04-02T03:15:50.298Z,34.12
2023-04-02T03:16:50.337Z,34.12
2023-04-02T03:17:50.346Z,34.16
2023-04-02T03:18:50.289Z,34.18
2023-04-02T03:19:50.313Z,34.16
2023-04-02T03:20:50.285Z,34.19
2023-04-02T03:21:50.312Z,34.19
2023-04-02T03:22:50.299Z,34.16
2023-04-02T03:23:50.292Z,34.13
2023-04-02T03:24:50.282Z,34.14
2023-04-02T03:25:50.280Z,34.14
2023-04-02T03:26:50.286Z,34.21
2023-04-02T03:27:50.257Z,34.19
2023-04-02T03:28:50.268Z,34.20
2023-04-02T03:29:50.212Z,34.12
2023-04-02T03:30:50.241Z,34.13
2023-04-02T03:31:50.239Z,34.15
2023-04-02T03:32:50.237Z,34.12
2023-04-02T03:33:50.216Z,34.16
2023-04-02T03:34:50.220Z,34.14
2023-04-02T03:35:50.245Z,34.11
2023-04-02T03:36:50.203Z,34.13
2023-04-02T03:37:50.174Z,34.15
2023-04-02T03:38:50.193Z,34.12
2023-04-02T03:39:50.195Z,34.14
2023-04-02T03:40:50.162Z,34.11
2023-04-02T03:41:50.157Z,34.15
2023-04-02T03:42:50.177Z,34.14
2023-04-02T03:43:50.184Z,34.14
2023-04-02T03:44:50.166Z,34.11
2023-04-02T03:45:50.144Z,34.07
2023-04-02T03:46:50.203Z,34.09
2023-04-02T03:47:50.169Z,34.15
2023-04-02T03:48:50.104Z,34.14
2023-04-02T03:49:50.155Z,34.12
2023-04-02T03:50:50.085Z,34.16
2023-04-02T03:51:50.098Z,34.13
2023-04-02T03:52:50.079Z,34.10
2023-04-02T03:53:50.083Z,34.11
2023-04-02T03:54:53.607Z,34.12
2023-04-02T03:55:50.075Z,34.07
2023-04-02T03:56:50.101Z,34.13
2023-04-02T03:57:50.065Z,34.11
2023-04-02T03:58:50.050Z,34.07
2023-04-02T03:59:50.065Z,34.11
2023-04-02T04:00:50.021Z,34.10
2023-04-02T04:01:50.041Z,34.14
2023-04-02T04:02:50.070Z,34.09
2023-04-02T04:03:50.062Z,34.07
2023-04-02T04:04:50.028Z,34.09
2023-04-02T04:05:50.002Z,34.11
2023-04-02T04:06:49.978Z,34.09
2023-04-02T04:07:49.958Z,34.11
2023-04-02T04:08:49.969Z,34.09
2023-04-02T04:09:49.983Z,34.05
2023-04-02T04:10:49.993Z,34.05
2023-04-02T04:11:49.952Z,34.09
2023-04-02T04:12:49.947Z,34.11
2023-04-02T04:13:49.953Z,34.10
2023-04-02T04:14:49.949Z,34.09
2023-04-02T04:15:49.932Z,34.07
2023-04-02T04:16:49.970Z,34.07
2023-04-02T04:17:49.963Z,34.06
2023-04-02T04:18:49.893Z,34.06
2023-04-02T04:19:49.904Z,34.08
2023-04-02T04:20:49.979Z,34.09
2023-04-02T04:21:49.907Z,34.10
2023-04-02T04:22:49.896Z,34.07
2023-04-02T04:23:49.895Z,34.06
2023-04-02T04:24:49.889Z,34.06
2023-04-02T04:25:49.842Z,34.07
2023-04-02T04:26:49.863Z,34.10
2023-04-02T04:27:49.871Z,34.05
2023-04-02T04:28:49.874Z,34.07
2023-04-02T04:29:49.860Z,34.06
2023-04-02T04:30:49.869Z,34.05
2023-04-02T04:31:49.949Z,34.07
2023-04-02T04:32:49.846Z,34.06
2023-04-02T04:33:49.828Z,34.05
2023-04-02T04:34:49.819Z,34.02
2023-04-02T04:35:49.899Z,34.01
2023-04-02T04:36:49.792Z,34.04
2023-04-02T04:37:49.752Z,34.01
2023-04-02T04:38:49.779Z,34.05
2023-04-02T04:39:49.758Z,34.05
2023-04-02T04:40:49.762Z,34.01
2023-04-02T04:41:49.765Z,34.03
2023-04-02T04:42:49.767Z,34.02
2023-04-02T04:43:49.749Z,34.05
2023-04-02T04:44:49.758Z,34.03
2023-04-02T04:45:49.744Z,34.00
2023-04-02T04:46:49.727Z,34.07
2023-04-02T04:47:49.802Z,34.04
2023-04-02T04:48:49.740Z,34.03
2023-04-02T04:49:49.704Z,34.04
2023-04-02T04:50:49.694Z,34.00
2023-04-02T04:51:49.752Z,34.04
2023-04-02T04:52:49.766Z,34.04
2023-04-02T04:53:49.772Z,34.02
2023-04-02T04:54:49.803Z,34.05
2023-04-02T04:55:49.784Z,34.01
2023-04-02T04:56:49.889Z,34.02
2023-04-02T04:57:49.829Z,34.03
2023-04-02T04:58:49.879Z,34.02
2023-04-02T04:59:49.865Z,34.05
2023-04-02T05:00:50.234Z,34.03
2023-04-02T05:01:49.940Z,34.06
2023-04-02T05:02:49.987Z,34.03
2023-04-02T05:03:49.943Z,34.02
2023-04-02T05:04:49.960Z,34.03
2023-04-02T05:05:49.950Z,34.05
2023-04-02T05:06:49.921Z,34.06
2023-04-02T05:07:49.973Z,34.00
2023-04-02T05:08:49.974Z,34.04
2023-04-02T05:09:49.964Z,34.02
2023-04-02T05:10:49.990Z,34.02
2023-04-02T05:11:49.983Z,34.02
2023-04-02T05:12:49.998Z,33.98
2023-04-02T05:13:50.035Z,34.01
2023-04-02T05:14:50.013Z,33.97
2023-04-02T05:15:50.089Z,34.01
2023-04-02T05:16:50.088Z,34.02
2023-04-02T05:17:50.137Z,33.98
2023-04-02T05:18:50.091Z,34.00
2023-04-02T05:19:50.105Z,34.01
2023-04-02T05:20:50.118Z,34.01
2023-04-02T05:21:50.117Z,33.98
2023-04-02T05:22:50.140Z,33.98
2023-04-02T05:23:50.187Z,34.02
2023-04-02T05:24:50.213Z,33.97
2023-04-02T05:25:50.237Z,34.01
2023-04-02T05:26:50.251Z,34.01
2023-04-02T05:27:50.259Z,34.00
2023-04-02T05:28:50.294Z,34.00
2023-04-02T05:29:50.273Z,34.01
2023-04-02T05:30:50.311Z,33.96
2023-04-02T05:31:50.479Z,33.98
2023-04-02T05:32:50.363Z,33.96
2023-04-02T05:33:50.358Z,34.00
2023-04-02T05:34:50.355Z,34.00
2023-04-02T05:35:50.396Z,33.98
2023-04-02T05:36:50.398Z,33.96
2023-04-02T05:37:50.403Z,33.97
2023-04-02T05:38:50.431Z,33.97
2023-04-02T05:39:50.433Z,34.00
2023-04-02T05:40:50.479Z,33.98
2023-04-02T05:41:50.475Z,33.95
2023-04-02T05:42:50.467Z,33.97
2023-04-02T05:43:50.532Z,33.96
2023-04-02T05:44:50.537Z,33.98
2023-04-02T05:45:50.556Z,33.96
2023-04-02T05:46:50.629Z,34.02
2023-04-02T05:47:50.672Z,33.98
2023-04-02T05:48:50.579Z,33.95
2023-04-02T05:49:50.612Z,33.96
2023-04-02T05:50:50.616Z,33.98
2023-04-02T05:51:50.630Z,33.94
2023-04-02T05:52:50.680Z,33.94
2023-04-02T05:53:50.654Z,33.98
2023-04-02T05:54:50.680Z,33.93
2023-04-02T05:55:50.719Z,33.98
2023-04-02T05:56:50.739Z,33.94
2023-04-02T05:58:04.263Z,33.98
2023-04-02T05:58:51.807Z,33.96
2023-04-02T05:59:50.716Z,33.94
2023-04-02T06:00:50.737Z,33.98
2023-04-02T06:01:50.753Z,33.96
2023-04-02T06:02:50.761Z,33.95
2023-04-02T06:03:50.712Z,33.97
2023-04-02T06:04:50.680Z,33.93
2023-04-02T06:05:50.675Z,33.97
2023-04-02T06:06:50.694Z,33.93
2023-04-02T06:07:50.634Z,33.93
2023-04-02T06:08:50.670Z,33.98
2023-04-02T06:09:50.669Z,33.97
2023-04-02T06:10:50.651Z,33.97
2023-04-02T06:11:50.641Z,33.95
2023-04-02T06:12:50.614Z,33.95
2023-04-02T06:13:50.614Z,33.94
2023-04-02T06:14:50.600Z,33.93
2023-04-02T06:15:50.615Z,33.98
2023-04-02T06:16:50.621Z,33.94
2023-04-02T06:17:50.635Z,33.90
2023-04-02T06:18:50.599Z,33.95
2023-04-02T06:19:50.590Z,33.93
2023-04-02T06:20:50.588Z,33.92
2023-04-02T06:21:50.545Z,33.93
2023-04-02T06:22:50.543Z,33.95
2023-04-02T06:23:50.558Z,33.92
2023-04-02T06:24:50.536Z,33.95
2023-04-02T06:25:50.595Z,33.92
2023-04-02T06:26:50.611Z,33.94
2023-04-02T06:27:50.627Z,33.95
2023-04-02T06:28:50.650Z,33.92
2023-04-02T06:29:50.652Z,33.89
2023-04-02T06:30:50.727Z,33.94
2023-04-02T06:31:50.743Z,33.93
2023-04-02T06:32:50.819Z,33.94
2023-04-02T06:33:50.769Z,33.98
2023-04-02T06:34:50.765Z,33.95
2023-04-02T06:35:50.844Z,33.95
2023-04-02T06:36:50.838Z,33.93
2023-04-02T06:37:50.862Z,33.91
2023-04-02T06:38:50.871Z,33.98
2023-04-02T06:39:50.898Z,33.93
2023-04-02T06:40:50.979Z,33.88
2023-04-02T06:41:50.965Z,33.91
2023-04-02T06:42:50.968Z,33.93
2023-04-02T06:43:50.968Z,33.89
2023-04-02T06:44:50.989Z,33.95
2023-04-02T06:45:50.992Z,33.90
2023-04-02T06:46:52.441Z,33.98
2023-04-02T06:47:51.081Z,33.89
2023-04-02T06:48:51.082Z,33.90
2023-04-02T06:49:51.095Z,33.92
2023-04-02T06:50:51.110Z,33.92
2023-04-02T06:51:51.215Z,33.92
2023-04-02T06:52:51.168Z,33.90
2023-04-02T06:53:51.159Z,33.88
2023-04-02T06:54:51.230Z,33.93
2023-04-02T06:55:51.195Z,33.88
2023-04-02T06:56:51.236Z,33.90
2023-04-02T06:57:51.256Z,33.87
2023-04-02T06:58:51.288Z,33.88
2023-04-02T06:59:51.289Z,33.89
2023-04-02T07:00:51.310Z,33.87
2023-04-02T07:01:51.409Z,33.90
2023-04-02T07:02:51.370Z,33.92
2023-04-02T07:03:51.384Z,33.92
2023-04-02T07:04:51.465Z,33.90
2023-04-02T07:05:51.408Z,33.88
2023-04-02T07:06:51.474Z,33.90
2023-04-02T07:07:51.460Z,33.92
2023-04-02T07:08:51.487Z,33.90
2023-04-02T07:09:51.508Z,33.90
2023-04-02T07:10:51.520Z,33.93
2023-04-02T07:11:51.571Z,33.86
2023-04-02T07:12:51.577Z,33.93
2023-04-02T07:13:51.582Z,33.87
2023-04-02T07:14:51.582Z,33.90
2023-04-02T07:15:51.620Z,33.89
2023-04-02T07:16:51.646Z,33.89
2023-04-02T07:17:51.759Z,33.84
2023-04-02T07:18:51.673Z,33.92
2023-04-02T07:19:51.689Z,33.87
2023-04-02T07:20:52.155Z,33.87
2023-04-02T07:21:51.727Z,33.87
2023-04-02T07:22:51.786Z,33.85
2023-04-02T07:23:51.781Z,33.86
2023-04-02T07:24:51.795Z,33.90
2023-04-02T07:25:51.852Z,33.87
2023-04-02T07:26:51.841Z,33.87
2023-04-02T07:27:51.942Z,33.92
2023-04-02T07:28:51.879Z,33.81
2023-04-02T07:29:51.905Z,33.90
2023-04-02T07:30:51.986Z,33.84
2023-04-02T07:31:52.062Z,33.87
2023-04-02T07:32:52.026Z,33.85
2023-04-02T07:33:51.971Z,33.84
2023-04-02T07:34:52.021Z,33.89
2023-04-02T07:35:52.073Z,33.87
2023-04-02T07:36:52.088Z,33.82
2023-04-02T07:37:52.082Z,33.81
2023-04-02T07:38:52.112Z,33.88
2023-04-02T07:39:52.121Z,33.81
2023-04-02T07:40:52.162Z,33.84
2023-04-02T07:41:52.179Z,33.84
2023-04-02T07:42:52.184Z,33.78
2023-04-02T07:43:52.237Z,33.85
2023-04-02T07:44:52.251Z,33.86
2023-04-02T07:45:52.265Z,33.84
2023-04-02T07:46:52.390Z,33.82
2023-04-02T07:47:52.314Z,33.83
2023-04-02T07:48:52.305Z,33.80
2023-04-02T07:49:52.340Z,33.79
2023-04-02T07:50:52.376Z,33.80
2023-04-02T07:51:52.373Z,33.85
2023-04-02T07:52:52.414Z,33.83
2023-04-02T07:53:52.446Z,33.82
2023-04-02T07:54:52.422Z,33.85
2023-04-02T07:55:52.479Z,33.82
2023-04-02T07:56:52.532Z,33.82
2023-04-02T07:57:52.549Z,33.77
2023-04-02T07:58:52.549Z,33.79
2023-04-02T07:59:52.575Z,33.79
2023-04-02T08:00:52.593Z,33.83
2023-04-02T08:01:52.656Z,33.79
2023-04-02T08:02:52.812Z,33.74
2023-04-02T08:03:54.267Z,33.75
2023-04-02T08:04:52.719Z,33.76
2023-04-02T08:05:52.734Z,33.76
2023-04-02T08:06:52.732Z,33.78
2023-04-02T08:07:52.771Z,33.80
2023-04-02T08:08:52.773Z,33.76
2023-04-02T08:09:52.798Z,33.79
2023-04-02T08:10:52.816Z,33.78
2023-04-02T08:11:52.846Z,33.71
2023-04-02T08:12:52.838Z,33.76
2023-04-02T08:13:52.863Z,33.76
2023-04-02T08:14:52.862Z,33.73
2023-04-02T08:15:52.917Z,33.78
2023-04-02T08:16:53.041Z,33.71
2023-04-02T08:17:52.971Z,33.75
2023-04-02T08:18:52.961Z,33.74
2023-04-02T08:19:55.062Z,33.72
2023-04-02T08:20:53.027Z,33.78
2023-04-02T08:21:53.037Z,33.70
2023-04-02T08:22:53.067Z,33.75
2023-04-02T08:23:53.178Z,33.70
2023-04-02T08:24:53.092Z,33.72
2023-04-02T08:25:53.103Z,33.75
2023-04-02T08:26:53.165Z,33.74
2023-04-02T08:27:53.170Z,33.72
2023-04-02T08:28:53.172Z,33.71
2023-04-02T08:29:53.174Z,33.73
2023-04-02T08:30:53.408Z,33.72
2023-04-02T08:31:53.253Z,33.71
2023-04-02T08:32:53.330Z,33.69
2023-04-02T08:33:53.294Z,33.74
2023-04-02T08:34:53.325Z,33.70
2023-04-02T08:35:53.384Z,33.75
2023-04-02T08:36:53.325Z,33.74
2023-04-02T08:37:53.376Z,33.75
2023-04-02T08:38:53.397Z,33.74
2023-04-02T08:39:53.406Z,33.71
2023-04-02T08:40:53.400Z,33.71
2023-04-02T08:41:53.452Z,33.72
2023-04-02T08:42:53.430Z,33.69
2023-04-02T08:43:53.506Z,33.75
2023-04-02T08:44:53.509Z,33.76
2023-04-02T08:45:53.534Z,33.71
2023-04-02T08:46:53.546Z,33.76
2023-04-02T08:47:53.750Z,33.71
2023-04-02T08:48:53.576Z,33.71
2023-04-02T08:49:53.601Z,33.71
2023-04-02T08:50:53.621Z,33.68
2023-04-02T08:51:53.633Z,33.72
2023-04-02T08:52:53.645Z,33.69
2023-04-02T08:53:53.694Z,33.73
2023-04-02T08:54:53.703Z,33.69
2023-04-02T08:55:53.755Z,33.66
2023-04-02T08:56:53.802Z,33.67
2023-04-02T08:57:53.757Z,33.66
2023-04-02T08:58:53.784Z,33.65
2023-04-02T08:59:53.801Z,33.69
2023-04-02T09:00:53.842Z,33.73
2023-04-02T09:01:53.914Z,33.70
2023-04-02T09:02:53.905Z,33.73
2023-04-02T09:03:53.906Z,33.70
2023-04-02T09:04:53.989Z,33.68
2023-04-02T09:05:53.947Z,33.69
2023-04-02T09:06:53.972Z,33.69
2023-04-02T09:07:53.994Z,33.68
2023-04-02T09:08:53.993Z,33.68
2023-04-02T09:09:54.041Z,33.68
2023-04-02T09:10:54.051Z,33.68
2023-04-02T09:11:54.058Z,33.69
2023-04-02T09:12:54.091Z,33.65
2023-04-02T09:13:54.106Z,33.71
2023-04-02T09:14:54.129Z,33.68
2023-04-02T09:15:54.206Z,33.69
2023-04-02T09:16:54.189Z,33.67
2023-04-02T09:17:55.013Z,33.65
2023-04-02T09:18:54.206Z,33.66
2023-04-02T09:19:55.002Z,33.65
2023-04-02T09:20:54.238Z,33.65
2023-04-02T09:21:54.244Z,33.68
2023-04-02T09:22:54.311Z,33.67
2023-04-02T09:23:54.315Z,33.65
2023-04-02T09:24:54.304Z,33.68
2023-04-02T09:26:03.461Z,33.65
2023-04-02T09:26:55.318Z,33.63
2023-04-02T09:27:54.307Z,33.69
2023-04-02T09:28:54.289Z,33.65
2023-04-02T09:29:54.285Z,33.63
2023-04-02T09:30:54.284Z,33.63
2023-04-02T09:31:54.330Z,33.60
2023-04-02T09:32:54.352Z,33.65
2023-04-02T09:33:54.296Z,33.67
2023-04-02T09:34:54.240Z,33.64
2023-04-02T09:35:54.326Z,33.67
2023-04-02T09:36:54.249Z,33.67
2023-04-02T09:37:54.245Z,33.60
2023-04-02T09:38:54.236Z,33.63
2023-04-02T09:39:54.241Z,33.62
2023-04-02T09:40:54.218Z,33.60
2023-04-02T09:42:04.945Z,33.65
2023-04-02T09:42:55.210Z,33.68
2023-04-02T09:43:54.214Z,33.67
2023-04-02T09:44:54.188Z,33.63
2023-04-02T09:45:54.178Z,33.64
2023-04-02T09:46:54.233Z,33.64
2023-04-02T09:47:54.195Z,33.60
2023-04-02T09:48:54.194Z,33.62
2023-04-02T09:49:54.152Z,33.64
2023-04-02T09:50:54.161Z,33.67
2023-04-02T09:51:54.170Z,33.64
2023-04-02T09:52:54.166Z,33.67
2023-04-02T09:53:54.148Z,33.64
2023-04-02T09:54:54.133Z,33.63
2023-04-02T09:55:54.148Z,33.62
2023-04-02T09:56:54.159Z,33.65
2023-04-02T09:57:54.116Z,33.64
2023-04-02T09:58:54.095Z,33.62
2023-04-02T09:59:54.952Z,33.64
2023-04-02T10:00:54.161Z,33.65
2023-04-02T10:01:54.106Z,33.66
2023-04-02T10:02:54.065Z,33.64
2023-04-02T10:03:54.090Z,33.64
2023-04-02T10:04:54.060Z,33.63
2023-04-02T10:05:54.037Z,33.64
2023-04-02T10:06:54.013Z,33.63
2023-04-02T10:07:54.061Z,33.63
2023-04-02T10:08:54.023Z,33.63
2023-04-02T10:09:54.045Z,33.62
2023-04-02T10:10:54.099Z,33.68
2023-04-02T10:11:54.090Z,33.63
2023-04-02T10:12:54.131Z,33.63
2023-04-02T10:13:54.150Z,33.67
2023-04-02T10:14:54.150Z,33.62
2023-04-02T10:15:54.156Z,33.62
2023-04-02T10:16:54.272Z,33.67
2023-04-02T10:17:54.226Z,33.64
2023-04-02T10:18:54.246Z,33.63
2023-04-02T10:19:54.221Z,33.68
2023-04-02T10:20:55.127Z,33.64
2023-04-02T10:21:54.263Z,33.59
2023-04-02T10:22:54.270Z,33.63
2023-04-02T10:23:54.313Z,33.56
2023-04-02T10:24:54.311Z,33.62
2023-04-02T10:25:54.349Z,33.62
2023-04-02T10:26:54.342Z,33.59
2023-04-02T10:27:54.393Z,33.64
2023-04-02T10:28:54.414Z,33.62
2023-04-02T10:29:54.397Z,33.60
2023-04-02T10:30:54.476Z,33.62
2023-04-02T10:31:54.413Z,33.63
2023-04-02T10:32:54.476Z,33.63
2023-04-02T10:33:54.455Z,33.62
2023-04-02T10:34:54.472Z,33.59
2023-04-02T10:35:54.513Z,33.60
2023-04-02T10:36:54.500Z,33.59
2023-04-02T10:37:54.496Z,33.59
2023-04-02T10:38:54.538Z,33.56
2023-04-02T10:39:54.536Z,33.62
2023-04-02T10:40:55.873Z,33.62
2023-04-02T10:41:54.580Z,33.57
2023-04-02T10:42:54.583Z,33.61
2023-04-02T10:43:54.605Z,33.62
2023-04-02T10:44:54.625Z,33.61
2023-04-02T10:45:54.646Z,33.59
2023-04-02T10:46:54.665Z,33.58
2023-04-02T10:47:54.684Z,33.59
2023-04-02T10:48:54.689Z,33.59
2023-04-02T10:49:54.648Z,33.59
2023-04-02T10:50:54.668Z,33.60
2023-04-02T10:51:54.686Z,33.58
2023-04-02T10:52:56.545Z,33.54
2023-04-02T10:53:54.746Z,33.59
2023-04-02T10:54:54.745Z,33.56
2023-04-02T10:55:54.752Z,33.55
2023-04-02T10:56:54.781Z,33.58
2023-04-02T10:57:54.785Z,33.61
2023-04-02T10:58:57.245Z,33.63
2023-04-02T10:59:55.016Z,33.58
2023-04-02T11:00:55.029Z,33.62
2023-04-02T11:01:55.063Z,33.61
2023-04-02T11:02:55.159Z,33.58
2023-04-02T11:03:57.862Z,33.58
2023-04-02T11:04:57.328Z,33.59
2023-04-02T11:05:55.025Z,33.55
2023-04-02T11:07:06.978Z,33.58
2023-04-02T11:07:56.065Z,33.57
2023-04-02T11:08:55.016Z,33.58
2023-04-02T11:09:55.103Z,33.60
2023-04-02T11:10:55.007Z,33.56
2023-04-02T11:11:54.999Z,33.59
2023-04-02T11:12:55.019Z,33.61
2023-04-02T11:13:54.997Z,33.57
2023-04-02T11:14:54.973Z,33.55
2023-04-02T11:15:55.045Z,33.61
2023-04-02T11:16:55.002Z,33.59
2023-04-02T11:17:54.999Z,33.64
2023-04-02T11:18:54.966Z,33.63
2023-04-02T11:19:54.955Z,33.63
2023-04-02T11:20:54.967Z,33.59
2023-04-02T11:21:59.280Z,33.59
2023-04-02T11:22:55.921Z,33.65
2023-04-02T11:23:54.929Z,33.59
2023-04-02T11:24:54.959Z,33.62
2023-04-02T11:25:54.930Z,33.61
2023-04-02T11:26:54.919Z,33.60
2023-04-02T11:27:54.921Z,33.61
2023-04-02T11:28:54.888Z,33.62
2023-04-02T11:29:54.879Z,33.60
2023-04-02T11:30:54.886Z,33.57
2023-04-02T11:31:54.908Z,33.61
2023-04-02T11:32:54.903Z,33.59
2023-04-02T11:33:54.863Z,33.59
2023-04-02T11:35:05.886Z,33.59
2023-04-02T11:35:55.869Z,33.65
2023-04-02T11:36:54.833Z,33.61
2023-04-02T11:37:54.841Z,33.61
2023-04-02T11:38:57.516Z,33.56
2023-04-02T11:39:55.834Z,33.59
2023-04-02T11:40:54.843Z,33.58
2023-04-02T11:41:54.804Z,33.61
2023-04-02T11:42:54.797Z,33.62
2023-04-02T11:43:54.808Z,33.57
2023-04-02T11:44:54.811Z,33.58
2023-04-02T11:45:54.996Z,33.61
2023-04-02T11:46:54.796Z,33.54
2023-04-02T11:47:54.777Z,33.60
2023-04-02T11:48:54.747Z,33.58
2023-04-02T11:49:54.806Z,33.59
2023-04-02T11:50:54.741Z,33.57
2023-04-02T11:52:09.026Z,33.62
2023-04-02T11:52:55.750Z,33.61
2023-04-02T11:53:54.742Z,33.59
2023-04-02T11:54:54.741Z,33.58
2023-04-02T11:55:54.719Z,33.58
2023-04-02T11:56:54.753Z,33.61
2023-04-02T11:57:54.714Z,33.55
2023-04-02T11:58:54.708Z,33.56
2023-04-02T11:59:54.694Z,33.58
2023-04-02T12:00:54.698Z,33.59
2023-04-02T12:01:54.695Z,33.55
2023-04-02T12:02:54.745Z,33.59
2023-04-02T12:03:54.659Z,33.58
2023-04-02T12:04:54.658Z,33.58
2023-04-02T12:05:54.678Z,33.59
2023-04-02T12:06:54.657Z,33.57
2023-04-02T12:07:54.657Z,33.58
2023-04-02T12:08:58.069Z,33.59
2023-04-02T12:09:54.609Z,33.61
2023-04-02T12:10:54.609Z,33.59
2023-04-02T12:11:54.628Z,33.65
2023-04-02T12:12:54.613Z,33.61
2023-04-02T12:13:54.595Z,33.59
2023-04-02T12:14:54.600Z,33.58
2023-04-02T12:15:54.590Z,33.62
2023-04-02T12:16:54.655Z,33.59
2023-04-02T12:17:54.597Z,33.62
2023-04-02T12:18:54.579Z,33.61
2023-04-02T12:19:54.576Z,33.58
2023-04-02T12:20:54.547Z,33.62
2023-04-02T12:21:54.549Z,33.63
2023-04-02T12:22:55.498Z,33.60
2023-04-02T12:23:54.538Z,33.60
2023-04-02T12:24:54.537Z,33.60
2023-04-02T12:25:54.492Z,33.55
2023-04-02T12:26:54.502Z,33.62
2023-04-02T12:27:54.520Z,33.59
2023-04-02T12:28:54.480Z,33.58
2023-04-02T12:29:54.492Z,33.53
2023-04-02T12:30:54.528Z,33.59
2023-04-02T12:31:54.469Z,33.57
2023-04-02T12:32:54.485Z,33.58
2023-04-02T12:33:54.454Z,33.56
2023-04-02T12:34:54.453Z,33.55
2023-04-02T12:35:54.470Z,33.55
2023-04-02T12:36:54.459Z,33.59
2023-04-02T12:37:54.437Z,33.62
2023-04-02T12:38:54.436Z,33.55
2023-04-02T12:39:54.416Z,33.54
2023-04-02T12:40:54.435Z,33.55
2023-04-02T12:41:54.415Z,33.58
2023-04-02T12:42:54.423Z,33.59
2023-04-02T12:43:54.394Z,33.60
2023-04-02T12:44:54.380Z,33.58
2023-04-02T12:45:54.403Z,33.52
2023-04-02T12:46:54.416Z,33.54
2023-04-02T12:47:54.425Z,33.58
2023-04-02T12:48:54.346Z,33.51
2023-04-02T12:49:54.369Z,33.58
2023-04-02T12:50:54.342Z,33.55
2023-04-02T12:51:54.329Z,33.55
2023-04-02T12:52:54.318Z,33.51
2023-04-02T12:53:54.296Z,33.54